Marion, Utah
Current Conditions -  °F | °C
As of 7:53 PM on Tuesday 25 Nov 2014 (Local Time) from KEVW Reporting Station
Broken Clouds Broken Clouds  
Wind Chill: 20°   Ceiling: 4700
Heat Index: 33°   Visibility: 10mi
Dew Point: 31°   Wind: 25mph
Humidity: 92%   Direction: 240°WSW
Pressure: 30.22"   Gusts: 37mph
Location:  40.8065°N, 110.723°W
Report Text: KEVW 260253Z AUTO 24022G32KT 10SM BKN047 01/M01 A3022 RMK AO2 PK WND 25032/0244 SLP242 60000 T00061006 58003
Loading
Personal Weather Stations






























Interactive Weather Map New forecast layout! Learn more

10-Day Weather Forecast

Advertisements
Track Severe Weather on mobile